createdAt,value
2019-05-02T00:01:08.443Z,36.10
2019-05-02T00:03:41.043Z,36.13
2019-05-02T00:06:09.327Z,36.18
2019-05-02T00:08:38.972Z,36.23
2019-05-02T00:11:09.595Z,36.42
2019-05-02T00:13:39.013Z,36.62
2019-05-02T00:16:09.118Z,36.73
2019-05-02T00:18:39.578Z,36.88
2019-05-02T00:21:09.389Z,36.99
2019-05-02T00:23:38.741Z,37.00
2019-05-02T00:26:08.127Z,37.09
2019-05-02T00:28:37.401Z,37.30
2019-05-02T00:31:07.403Z,37.41
2019-05-02T00:33:37.666Z,37.48
2019-05-02T00:36:06.858Z,37.44
2019-05-02T00:38:38.355Z,37.67
2019-05-02T00:41:07.214Z,37.80
2019-05-02T00:43:36.542Z,37.85
2019-05-02T00:46:05.880Z,38.09
2019-05-02T00:48:39.711Z,38.39
2019-05-02T00:51:09.137Z,38.36
2019-05-02T00:53:38.741Z,38.23
2019-05-02T00:56:09.042Z,38.21
2019-05-02T00:58:39.116Z,38.22
2019-05-02T01:01:16.283Z,38.24
2019-05-02T01:03:51.917Z,38.29
2019-05-02T01:06:18.157Z,38.34
2019-05-02T01:08:47.401Z,38.31
2019-05-02T01:11:16.870Z,38.37
2019-05-02T01:13:50.458Z,38.56
2019-05-02T01:16:36.441Z,38.68
2019-05-02T01:19:05.938Z,38.72
2019-05-02T01:21:38.794Z,38.96
2019-05-02T01:24:06.099Z,39.06
2019-05-02T01:26:43.232Z,39.10
2019-05-02T01:29:20.103Z,39.06
2019-05-02T01:32:00.180Z,39.20
2019-05-02T01:34:31.034Z,39.33
2019-05-02T01:37:12.413Z,39.51
2019-05-02T01:39:42.680Z,39.52
2019-05-02T01:42:09.862Z,39.60
2019-05-02T01:44:39.256Z,39.61
2019-05-02T01:47:08.558Z,39.75
2019-05-02T01:49:38.137Z,39.87
2019-05-02T01:52:07.392Z,39.99
2019-05-02T01:54:40.799Z,40.05
2019-05-02T01:57:08.693Z,40.10
2019-05-02T01:59:39.052Z,40.19
2019-05-02T02:02:08.829Z,40.12
2019-05-02T02:04:38.120Z,40.29
2019-05-02T02:07:07.396Z,40.39
2019-05-02T02:09:38.912Z,40.45
2019-05-02T02:12:09.699Z,40.56
2019-05-02T02:14:38.718Z,40.64
2019-05-02T02:17:10.168Z,40.74
2019-05-02T02:19:40.773Z,40.85
2019-05-02T02:22:17.269Z,40.92
2019-05-02T02:24:48.084Z,40.92
2019-05-02T02:27:19.955Z,41.03
2019-05-02T02:29:48.459Z,41.08
2019-05-02T02:32:20.335Z,41.02
2019-05-02T02:34:48.672Z,41.06
2019-05-02T02:37:17.867Z,41.11
2019-05-02T02:39:48.517Z,40.98
2019-05-02T02:42:18.062Z,41.14
2019-05-02T02:44:48.941Z,41.23
2019-05-02T02:47:21.074Z,41.37
2019-05-02T02:49:49.189Z,41.44
2019-05-02T02:52:18.490Z,41.51
2019-05-02T02:54:47.703Z,41.58
2019-05-02T02:57:25.646Z,41.55
2019-05-02T02:59:48.013Z,41.65
2019-05-02T03:02:17.348Z,41.85
2019-05-02T03:04:46.745Z,41.86
2019-05-02T03:07:24.040Z,41.92
2019-05-02T03:09:47.158Z,41.93
2019-05-02T03:12:20.955Z,41.94
2019-05-02T03:14:51.789Z,41.88
2019-05-02T03:17:25.982Z,41.93
2019-05-02T03:19:54.499Z,42.00
2019-05-02T03:22:22.989Z,41.93
2019-05-02T03:24:52.340Z,42.06
2019-05-02T03:27:21.722Z,41.97
2019-05-02T03:29:51.100Z,41.94
2019-05-02T03:32:31.391Z,41.91
2019-05-02T03:34:53.618Z,41.96
2019-05-02T03:37:22.776Z,42.09
2019-05-02T03:39:57.226Z,42.33
2019-05-02T03:42:23.231Z,42.47
2019-05-02T03:44:56.028Z,42.47
2019-05-02T03:47:24.467Z,42.48
2019-05-02T03:49:53.656Z,42.45
2019-05-02T03:52:23.082Z,42.56
2019-05-02T03:54:52.840Z,42.64
2019-05-02T03:57:32.431Z,42.62
2019-05-02T03:59:54.647Z,42.73
2019-05-02T04:02:24.457Z,42.80
2019-05-02T04:05:00.313Z,42.73
2019-05-02T04:07:26.517Z,42.67
2019-05-02T04:09:56.683Z,42.69
2019-05-02T04:12:26.803Z,42.61
2019-05-02T04:14:57.447Z,42.65
2019-05-02T04:17:29.132Z,42.67
2019-05-02T04:19:58.778Z,42.65
2019-05-02T04:22:28.866Z,42.63
2019-05-02T04:24:58.824Z,42.72
2019-05-02T04:27:34.229Z,42.69
2019-05-02T04:30:09.762Z,42.76
2019-05-02T04:32:32.410Z,42.76
2019-05-02T04:35:02.417Z,42.68
2019-05-02T04:37:34.402Z,42.70
2019-05-02T04:40:09.080Z,42.69
2019-05-02T04:42:39.358Z,42.63
2019-05-02T04:45:23.999Z,42.67
2019-05-02T04:47:42.571Z,42.61
2019-05-02T04:50:17.828Z,42.57
2019-05-02T04:52:48.364Z,42.52
2019-05-02T04:55:26.122Z,42.63
2019-05-02T04:57:50.852Z,42.50
2019-05-02T05:00:22.372Z,42.47
2019-05-02T05:02:53.230Z,42.38
2019-05-02T05:05:25.541Z,42.37
2019-05-02T05:07:55.375Z,42.32
2019-05-02T05:10:27.685Z,42.15
2019-05-02T05:12:57.200Z,42.28
2019-05-02T05:15:37.145Z,42.32
2019-05-02T05:17:58.890Z,42.29
2019-05-02T05:20:28.901Z,42.19
2019-05-02T05:22:58.916Z,42.20
2019-05-02T05:25:39.737Z,42.13
2019-05-02T05:28:10.018Z,41.97
2019-05-02T05:30:45.278Z,41.82
2019-05-02T05:33:11.959Z,41.93
2019-05-02T05:35:43.341Z,41.98
2019-05-02T05:38:13.463Z,41.87
2019-05-02T05:40:43.538Z,41.64
2019-05-02T05:43:15.728Z,41.54
2019-05-02T05:45:53.834Z,41.56
2019-05-02T05:48:18.390Z,41.42
2019-05-02T05:50:48.476Z,41.27
2019-05-02T05:53:21.350Z,41.23
2019-05-02T05:55:53.496Z,41.17
2019-05-02T05:58:22.489Z,41.10
2019-05-02T06:00:55.419Z,40.92
2019-05-02T06:03:24.225Z,40.72
2019-05-02T06:05:53.904Z,40.32
2019-05-02T06:08:24.504Z,40.02
2019-05-02T06:10:54.640Z,39.69
2019-05-02T06:13:24.831Z,39.38
2019-05-02T06:16:01.958Z,38.87
2019-05-02T06:18:28.420Z,38.54
2019-05-02T06:21:03.344Z,37.69
2019-05-02T06:23:31.061Z,37.49
2019-05-02T06:26:07.952Z,36.98
2019-05-02T06:28:36.179Z,36.84
2019-05-02T06:31:07.215Z,37.03
2019-05-02T06:33:38.081Z,36.78
2019-05-02T06:36:08.664Z,36.49
2019-05-02T06:38:38.880Z,35.99
2019-05-02T06:41:09.231Z,35.50
2019-05-02T06:43:41.092Z,35.43
2019-05-02T06:46:16.473Z,35.16
2019-05-02T06:48:48.156Z,34.50
2019-05-02T06:51:19.548Z,34.48
2019-05-02T06:53:48.990Z,34.51
2019-05-02T06:56:19.166Z,34.43
2019-05-02T06:58:49.738Z,34.41
2019-05-02T07:01:21.313Z,34.30
2019-05-02T07:03:51.970Z,34.30
2019-05-02T07:06:22.657Z,34.10
2019-05-02T07:08:52.907Z,34.17
2019-05-02T07:11:23.521Z,33.84
2019-05-02T07:13:53.743Z,33.77
2019-05-02T07:16:38.469Z,33.89
2019-05-02T07:19:27.410Z,33.58
2019-05-02T07:21:58.560Z,33.31
2019-05-02T07:24:30.582Z,32.86
2019-05-02T07:27:02.184Z,32.74
2019-05-02T07:29:31.210Z,32.79
2019-05-02T07:32:01.378Z,32.91
2019-05-02T07:34:31.230Z,32.91
2019-05-02T07:37:01.711Z,32.82
2019-05-02T07:39:36.141Z,32.81
2019-05-02T07:42:05.759Z,32.75
2019-05-02T07:44:35.590Z,32.80
2019-05-02T07:47:05.683Z,32.80
2019-05-02T07:49:35.676Z,32.57
2019-05-02T07:52:05.954Z,32.53
2019-05-02T07:54:36.022Z,32.49
2019-05-02T07:57:06.006Z,32.22
2019-05-02T07:59:36.090Z,31.74
2019-05-02T08:02:06.092Z,31.40
2019-05-02T08:04:36.344Z,30.99
2019-05-02T08:07:06.663Z,30.71
2019-05-02T08:09:39.300Z,30.82
2019-05-02T08:12:09.137Z,30.67
2019-05-02T08:14:39.214Z,30.36
2019-05-02T08:17:16.109Z,29.93
2019-05-02T08:19:41.771Z,29.25
2019-05-02T08:22:13.788Z,28.76
2019-05-02T08:24:44.345Z,28.13
2019-05-02T08:27:23.187Z,27.66
2019-05-02T08:29:53.838Z,27.24
2019-05-02T08:32:23.890Z,27.05
2019-05-02T08:34:54.004Z,26.08
2019-05-02T08:37:24.299Z,25.99
2019-05-02T08:39:54.280Z,25.88
2019-05-02T08:42:27.711Z,25.61
2019-05-02T08:44:56.502Z,25.43
2019-05-02T08:47:28.573Z,24.34
2019-05-02T08:49:59.273Z,24.28
2019-05-02T08:52:29.376Z,25.06
2019-05-02T08:54:59.515Z,25.69
2019-05-02T08:57:29.983Z,26.03
2019-05-02T09:00:01.508Z,26.06
2019-05-02T09:02:41.209Z,25.98
2019-05-02T09:05:04.581Z,25.53
2019-05-02T09:07:37.189Z,25.24
2019-05-02T09:10:11.555Z,24.87
2019-05-02T09:12:45.267Z,24.35
2019-05-02T09:15:13.377Z,24.25
2019-05-02T09:17:51.751Z,24.39
2019-05-02T09:20:19.930Z,24.76
2019-05-02T09:22:52.201Z,24.56
2019-05-02T09:25:19.348Z,24.67
2019-05-02T09:27:49.521Z,23.38
2019-05-02T09:30:22.827Z,23.63
2019-05-02T09:32:52.295Z,23.43
2019-05-02T09:35:23.073Z,23.57
2019-05-02T09:37:53.474Z,24.32
2019-05-02T09:40:23.498Z,23.66
2019-05-02T09:42:58.533Z,22.73
2019-05-02T09:45:35.470Z,22.14
2019-05-02T09:48:07.602Z,20.60
2019-05-02T09:50:34.421Z,19.53
2019-05-02T09:53:05.105Z,19.48
2019-05-02T09:55:35.478Z,19.96
2019-05-02T09:58:05.679Z,18.83
2019-05-02T10:00:41.822Z,18.77
2019-05-02T10:03:12.199Z,18.27
2019-05-02T10:05:43.049Z,18.66
2019-05-02T10:08:13.982Z,17.11
2019-05-02T10:10:46.002Z,16.21
2019-05-02T10:13:16.348Z,15.67
2019-05-02T10:15:46.468Z,15.40
2019-05-02T10:18:19.664Z,15.81
2019-05-02T10:20:48.429Z,15.25
2019-05-02T10:23:20.747Z,15.71
2019-05-02T10:25:49.508Z,16.64
2019-05-02T10:28:19.631Z,16.69
2019-05-02T10:30:52.594Z,17.51
2019-05-02T10:33:22.436Z,17.86
2019-05-02T10:35:52.731Z,18.39
2019-05-02T10:38:22.894Z,17.39
2019-05-02T10:40:54.591Z,18.05
2019-05-02T10:43:24.740Z,16.83
2019-05-02T10:45:59.414Z,17.73
2019-05-02T10:48:29.504Z,17.84
2019-05-02T10:51:19.079Z,18.17
2019-05-02T10:53:52.597Z,17.40
2019-05-02T10:56:22.131Z,18.58
2019-05-02T10:58:52.374Z,19.64
2019-05-02T11:01:24.147Z,19.82
2019-05-02T11:04:04.870Z,19.71
2019-05-02T11:06:37.121Z,19.05
2019-05-02T11:09:09.663Z,17.40
2019-05-02T11:11:42.370Z,17.79
2019-05-02T11:14:16.369Z,18.28
2019-05-02T11:17:01.663Z,17.39
2019-05-02T11:19:45.113Z,17.54
2019-05-02T11:22:15.286Z,17.58
2019-05-02T11:24:45.515Z,15.52
2019-05-02T11:27:15.588Z,15.05
2019-05-02T11:29:45.727Z,14.55
2019-05-02T11:32:15.854Z,14.33
2019-05-02T11:34:45.929Z,15.66
2019-05-02T11:37:16.107Z,15.64
2019-05-02T11:39:51.844Z,16.04
2019-05-02T11:42:23.218Z,15.60
2019-05-02T11:44:49.754Z,15.99
2019-05-02T11:47:24.895Z,17.13
2019-05-02T11:49:55.737Z,17.93
2019-05-02T11:52:27.458Z,18.27
2019-05-02T11:54:55.044Z,18.65
2019-05-02T11:57:28.547Z,18.56
2019-05-02T11:59:59.512Z,19.01
2019-05-02T12:02:28.277Z,19.40
2019-05-02T12:04:58.392Z,19.64
2019-05-02T12:07:28.509Z,19.92
2019-05-02T12:09:58.537Z,19.42
2019-05-02T12:12:32.476Z,19.94
2019-05-02T12:15:02.398Z,20.22
2019-05-02T12:17:32.646Z,20.16
2019-05-02T12:20:02.962Z,20.96
2019-05-02T12:22:33.100Z,20.63
2019-05-02T12:25:03.102Z,21.05
2019-05-02T12:27:33.024Z,21.82
2019-05-02T12:30:03.454Z,22.14
2019-05-02T12:32:33.657Z,23.17
2019-05-02T12:35:04.422Z,23.93
2019-05-02T12:37:34.762Z,24.03
2019-05-02T12:40:06.115Z,24.14
2019-05-02T12:42:36.059Z,24.49
2019-05-02T12:45:07.955Z,24.83
2019-05-02T12:47:38.005Z,24.84
2019-05-02T12:50:08.674Z,25.14
2019-05-02T12:52:39.393Z,25.34
2019-05-02T12:55:09.937Z,24.51
2019-05-02T12:57:40.093Z,24.81
2019-05-02T13:00:12.732Z,24.67
2019-05-02T13:02:52.435Z,24.70
2019-05-02T13:05:22.340Z,25.15
2019-05-02T13:07:55.300Z,25.65
2019-05-02T13:10:35.680Z,26.02
2019-05-02T13:13:07.927Z,26.61
2019-05-02T13:15:38.035Z,26.72
2019-05-02T13:18:08.032Z,26.64
2019-05-02T13:20:39.207Z,26.00
2019-05-02T13:23:34.043Z,25.95
2019-05-02T13:26:02.472Z,25.32
2019-05-02T13:28:33.446Z,25.63
2019-05-02T13:31:05.664Z,25.90
2019-05-02T13:33:53.747Z,24.99
2019-05-02T13:36:44.745Z,25.25
2019-05-02T13:39:32.535Z,25.04
2019-05-02T13:42:02.512Z,24.37
2019-05-02T13:44:43.771Z,23.80
2019-05-02T13:47:15.490Z,24.34
2019-05-02T13:49:53.874Z,23.93
2019-05-02T13:52:19.468Z,23.84
2019-05-02T13:54:52.130Z,23.71
2019-05-02T13:57:22.170Z,23.77
2019-05-02T13:59:54.070Z,24.09
2019-05-02T14:02:42.628Z,24.06
2019-05-02T14:05:15.599Z,24.21
2019-05-02T14:07:48.380Z,24.78
2019-05-02T14:10:22.777Z,24.55
2019-05-02T14:12:54.486Z,24.56
2019-05-02T14:15:26.598Z,24.83
2019-05-02T14:17:57.263Z,24.74
2019-05-02T14:20:27.574Z,25.04
2019-05-02T14:22:58.079Z,24.95
2019-05-02T14:25:28.530Z,25.01
2019-05-02T14:27:58.902Z,25.08
2019-05-02T14:30:37.069Z,25.38
2019-05-02T14:33:03.174Z,24.93
2019-05-02T14:35:37.846Z,24.45
2019-05-02T14:38:08.946Z,24.57
2019-05-02T14:40:52.010Z,24.83
2019-05-02T14:43:46.146Z,24.75
2019-05-02T14:46:12.617Z,24.71
2019-05-02T14:48:45.205Z,24.69
2019-05-02T14:51:16.661Z,24.82
2019-05-02T14:53:48.671Z,25.13
2019-05-02T14:56:26.558Z,25.24
2019-05-02T14:58:57.136Z,24.61
2019-05-02T15:01:27.729Z,24.53
2019-05-02T15:04:03.187Z,25.10
2019-05-02T15:06:33.316Z,25.25
2019-05-02T15:09:02.799Z,25.95
2019-05-02T15:11:34.963Z,26.20
2019-05-02T15:14:05.084Z,26.30
2019-05-02T15:16:42.360Z,26.46
2019-05-02T15:19:06.806Z,26.96
2019-05-02T15:21:46.911Z,27.15
2019-05-02T15:24:15.223Z,27.37
2019-05-02T15:26:45.685Z,27.46
2019-05-02T15:29:19.667Z,27.49
2019-05-02T15:32:07.366Z,27.32
2019-05-02T15:34:57.841Z,27.46
2019-05-02T15:37:28.866Z,27.44
2019-05-02T15:42:32.280Z,27.65
2019-05-02T15:45:05.561Z,27.50
2019-05-02T15:47:37.096Z,27.53
2019-05-02T15:50:06.206Z,27.61
2019-05-02T15:52:39.217Z,27.60
2019-05-02T15:55:11.485Z,27.48
2019-05-02T15:57:43.660Z,27.32
2019-05-02T16:00:21.713Z,27.32
2019-05-02T16:02:46.659Z,27.40
2019-05-02T16:05:17.052Z,27.45
2019-05-02T16:07:47.599Z,27.79
2019-05-02T16:10:17.871Z,28.10
2019-05-02T16:12:49.732Z,28.41
2019-05-02T16:15:25.855Z,29.18
2019-05-02T16:17:52.274Z,29.68
2019-05-02T16:20:27.602Z,30.21
2019-05-02T16:22:57.582Z,30.59
2019-05-02T16:26:05.884Z,31.24
2019-05-02T16:28:36.939Z,31.74
2019-05-02T16:31:10.138Z,32.23
2019-05-02T16:33:39.507Z,32.22
2019-05-02T16:36:09.799Z,32.18
2019-05-02T16:38:40.308Z,31.69
2019-05-02T16:41:11.420Z,31.52
2019-05-02T16:43:42.072Z,31.85
2019-05-02T16:46:14.127Z,32.14
2019-05-02T16:48:44.199Z,32.54
2019-05-02T16:51:29.898Z,32.32
2019-05-02T16:53:46.454Z,32.72
2019-05-02T16:56:16.668Z,32.64
2019-05-02T16:58:47.296Z,32.94
2019-05-02T17:01:24.560Z,33.20
2019-05-02T17:03:49.951Z,33.19
2019-05-02T17:06:22.349Z,33.44
2019-05-02T17:09:02.208Z,33.68
2019-05-02T17:11:35.826Z,34.48
2019-05-02T17:14:07.167Z,34.77
2019-05-02T17:16:37.602Z,34.99
2019-05-02T17:19:08.043Z,35.13
2019-05-02T17:21:53.007Z,35.54
2019-05-02T17:24:10.393Z,36.09
2019-05-02T17:26:42.244Z,36.76
2019-05-02T17:29:16.332Z,36.35
2019-05-02T17:31:44.054Z,36.61
2019-05-02T17:34:14.918Z,37.11
2019-05-02T17:36:45.826Z,37.51
2019-05-02T17:39:18.739Z,37.45
2019-05-02T17:41:47.917Z,38.12
2019-05-02T17:44:22.226Z,38.17
2019-05-02T17:46:57.946Z,37.94
2019-05-02T17:49:23.841Z,38.18
2019-05-02T17:52:18.953Z,38.09
2019-05-02T17:54:42.434Z,38.38
2019-05-02T17:57:12.103Z,38.39
2019-05-02T17:59:42.529Z,38.29
2019-05-02T18:02:15.902Z,38.72
2019-05-02T18:04:46.590Z,38.96
2019-05-02T18:07:18.137Z,39.04
2019-05-02T18:09:47.649Z,39.33
2019-05-02T18:12:17.462Z,39.81
2019-05-02T18:14:53.074Z,40.17
2019-05-02T18:17:19.221Z,40.14
2019-05-02T18:19:49.243Z,40.09
2019-05-02T18:22:24.164Z,40.95
2019-05-02T18:24:52.676Z,41.19
2019-05-02T18:27:22.754Z,41.09
2019-05-02T18:29:52.359Z,41.35
2019-05-02T18:32:25.080Z,41.48
2019-05-02T18:34:56.869Z,41.77
2019-05-02T18:37:24.888Z,41.88
2019-05-02T18:39:56.031Z,41.99
2019-05-02T18:42:26.308Z,41.69
2019-05-02T18:44:56.029Z,41.58
2019-05-02T18:47:26.169Z,41.06
2019-05-02T18:50:04.278Z,40.55
2019-05-02T18:52:36.445Z,40.23
2019-05-02T18:55:01.632Z,40.18
2019-05-02T18:57:31.295Z,40.40
2019-05-02T19:00:02.006Z,40.07
2019-05-02T19:02:35.383Z,40.19
2019-05-02T19:05:06.147Z,40.49
2019-05-02T19:07:36.146Z,40.31
2019-05-02T19:10:08.444Z,40.41
2019-05-02T19:12:37.704Z,40.60
2019-05-02T19:15:07.371Z,40.60
2019-05-02T19:17:39.147Z,40.63
2019-05-02T19:20:29.662Z,40.62
2019-05-02T19:22:59.002Z,40.54
2019-05-02T19:25:28.396Z,40.86
2019-05-02T19:27:59.415Z,41.10
2019-05-02T19:30:32.626Z,41.12
2019-05-02T19:33:06.087Z,41.09
2019-05-02T19:35:37.624Z,41.19
2019-05-02T19:38:04.056Z,41.25
2019-05-02T19:40:33.331Z,41.00
2019-05-02T19:43:07.518Z,40.95
2019-05-02T19:45:33.536Z,40.93
2019-05-02T19:48:02.850Z,41.05
2019-05-02T19:50:39.230Z,40.79
2019-05-02T19:53:14.909Z,40.86
2019-05-02T19:55:37.149Z,40.95
2019-05-02T19:58:06.666Z,41.01
2019-05-02T20:00:41.121Z,41.23
2019-05-02T20:03:07.358Z,41.45
2019-05-02T20:05:39.286Z,41.48
2019-05-02T20:08:09.720Z,41.98
2019-05-02T20:10:39.087Z,42.11
2019-05-02T20:13:08.538Z,42.25
2019-05-02T20:15:39.448Z,42.26
2019-05-02T20:18:08.683Z,42.25
2019-05-02T20:21:03.950Z,42.23
2019-05-02T20:23:35.674Z,42.15
2019-05-02T20:26:09.518Z,42.30
2019-05-02T20:28:35.906Z,42.30
2019-05-02T20:31:05.126Z,42.18
2019-05-02T20:33:34.389Z,42.16
2019-05-02T20:36:03.750Z,42.04
2019-05-02T20:38:33.060Z,42.09
2019-05-02T20:41:02.933Z,41.99
2019-05-02T20:43:32.483Z,41.99
2019-05-02T20:46:02.647Z,42.02
2019-05-02T20:48:32.300Z,42.09
2019-05-02T20:51:02.766Z,42.13
2019-05-02T20:53:34.231Z,41.92
2019-05-02T20:56:03.056Z,41.90
2019-05-02T20:58:32.752Z,41.99
2019-05-02T21:01:08.172Z,41.61
2019-05-02T21:03:33.047Z,41.73
2019-05-02T21:06:09.808Z,41.81
2019-05-02T21:08:49.481Z,42.10
2019-05-02T21:11:18.941Z,41.97
2019-05-02T21:13:48.249Z,41.93
2019-05-02T21:16:17.557Z,42.07
2019-05-02T21:18:47.034Z,42.16
2019-05-02T21:21:16.528Z,42.22
2019-05-02T21:23:47.699Z,42.06
2019-05-02T21:26:17.097Z,42.36
2019-05-02T21:28:46.369Z,42.42
2019-05-02T21:31:15.774Z,42.32
2019-05-02T21:33:45.114Z,42.02
2019-05-02T21:36:14.715Z,42.10
2019-05-02T21:38:43.962Z,42.21
2019-05-02T21:41:13.111Z,42.42
2019-05-02T21:43:42.668Z,42.56
2019-05-02T21:46:11.906Z,42.44
2019-05-02T21:48:42.059Z,42.34
2019-05-02T21:51:13.256Z,42.28
2019-05-02T21:53:56.000Z,42.16
2019-05-02T21:56:25.522Z,42.07
2019-05-02T21:59:07.789Z,42.15
2019-05-02T22:01:42.217Z,42.27
2019-05-02T22:04:13.156Z,42.44
2019-05-02T22:06:42.847Z,42.47
2019-05-02T22:09:12.566Z,42.52
2019-05-02T22:11:43.015Z,42.53
2019-05-02T22:14:13.350Z,42.48
2019-05-02T22:16:42.973Z,42.53
2019-05-02T22:19:12.182Z,42.51
2019-05-02T22:21:43.164Z,42.63
2019-05-02T22:24:14.381Z,42.63
2019-05-02T22:26:43.641Z,42.87
2019-05-02T22:29:12.849Z,42.96
2019-05-02T22:31:43.087Z,43.17
2019-05-02T22:34:12.943Z,43.23
2019-05-02T22:36:43.238Z,43.30
2019-05-02T22:39:31.695Z,43.62
2019-05-02T22:42:01.967Z,43.83
2019-05-02T22:44:32.548Z,44.25
2019-05-02T22:47:01.832Z,44.14
2019-05-02T22:49:31.885Z,44.20
2019-05-02T22:52:01.467Z,44.48
2019-05-02T22:54:33.767Z,44.57
2019-05-02T22:57:02.575Z,44.67
2019-05-02T22:59:31.846Z,44.79
2019-05-02T23:02:02.156Z,45.00
2019-05-02T23:04:32.514Z,44.98
2019-05-02T23:07:02.445Z,44.97
2019-05-02T23:09:31.858Z,45.04
2019-05-02T23:12:02.881Z,45.12
2019-05-02T23:14:32.690Z,45.40
2019-05-02T23:17:02.218Z,45.69
2019-05-02T23:19:31.870Z,45.85
2019-05-02T23:22:02.142Z,46.12
2019-05-02T23:24:39.085Z,46.30
2019-05-02T23:27:22.399Z,46.40
2019-05-02T23:29:52.059Z,46.60
2019-05-02T23:32:23.674Z,47.00
2019-05-02T23:34:52.766Z,46.77
2019-05-02T23:37:21.999Z,46.77
2019-05-02T23:39:52.294Z,46.76
2019-05-02T23:42:21.979Z,46.83
2019-05-02T23:44:51.871Z,46.60
2019-05-02T23:47:22.446Z,46.61
2019-05-02T23:49:52.171Z,46.94
2019-05-02T23:52:22.457Z,46.65
2019-05-02T23:54:52.589Z,46.56
2019-05-02T23:57:22.977Z,46.49
2019-05-02T23:59:52.648Z,46.51
